createdAt,value
2018-03-27T00:00:07.034Z,87.50
2018-03-27T00:02:34.572Z,79.47
2018-03-27T00:05:02.081Z,82.13
2018-03-27T00:07:29.586Z,74.23
2018-03-27T00:09:57.139Z,75.13
2018-03-27T00:12:24.650Z,85.03
2018-03-27T00:14:52.192Z,78.00
2018-03-27T00:17:19.682Z,77.72
2018-03-27T00:19:47.194Z,76.72
2018-03-27T00:22:15.466Z,84.37
2018-03-27T00:24:43.778Z,80.10
2018-03-27T00:27:10.825Z,91.20
2018-03-27T00:29:50.054Z,78.93
2018-03-27T00:32:29.417Z,80.55
2018-03-27T00:35:08.841Z,78.93
2018-03-27T00:37:48.827Z,84.15
2018-03-27T00:40:28.097Z,83.95
2018-03-27T00:42:56.490Z,76.25
2018-03-27T00:45:23.995Z,87.55
2018-03-27T00:47:51.517Z,78.00
2018-03-27T00:50:19.820Z,84.07
2018-03-27T00:52:47.330Z,95.62
2018-03-27T00:55:14.871Z,84.93
2018-03-27T00:57:43.151Z,89.43
2018-03-27T01:00:11.442Z,88.80
2018-03-27T01:02:38.968Z,81.75
2018-03-27T01:05:09.337Z,80.53
2018-03-27T01:07:36.888Z,82.25
2018-03-27T01:10:04.408Z,82.05
2018-03-27T01:12:31.958Z,85.87
2018-03-27T01:14:59.469Z,81.63
2018-03-27T01:17:27.014Z,80.53
2018-03-27T01:19:55.291Z,76.35
2018-03-27T01:22:23.576Z,74.95
2018-03-27T01:24:51.113Z,76.87
2018-03-27T01:27:19.422Z,75.82
2018-03-27T01:29:46.934Z,75.00
2018-03-27T01:32:14.447Z,68.62
2018-03-27T01:34:41.977Z,75.80
2018-03-27T01:37:10.238Z,76.55
2018-03-27T01:39:38.557Z,80.82
2018-03-27T01:42:06.067Z,78.32
2018-03-27T01:44:33.586Z,85.18
2018-03-27T01:47:01.102Z,80.10
2018-03-27T01:49:29.358Z,83.95
2018-03-27T01:51:56.877Z,81.15
2018-03-27T01:54:24.365Z,83.95
2018-03-27T01:56:51.894Z,85.30
2018-03-27T01:59:20.156Z,101.22
2018-03-27T02:01:47.715Z,106.75
2018-03-27T02:04:15.214Z,114.65
2018-03-27T02:06:42.749Z,112.12
2018-03-27T02:09:10.259Z,101.43
2018-03-27T02:11:44.306Z,102.72
2018-03-27T02:14:17.612Z,94.50
2018-03-27T02:16:50.774Z,97.30
2018-03-27T02:19:23.923Z,96.87
2018-03-27T02:21:50.964Z,93.72
2018-03-27T02:24:19.946Z,96.07
2018-03-27T02:26:47.444Z,94.05
2018-03-27T02:29:15.762Z,97.45
2018-03-27T02:31:43.255Z,94.37
2018-03-27T02:34:10.765Z,93.10
2018-03-27T02:36:38.267Z,99.05
2018-03-27T02:39:05.807Z,107.20
2018-03-27T02:41:33.300Z,115.03
2018-03-27T02:44:01.620Z,115.05
2018-03-27T02:46:30.003Z,99.87
2018-03-27T02:48:58.249Z,104.03
2018-03-27T02:51:25.776Z,107.20
2018-03-27T02:53:53.273Z,114.90
2018-03-27T02:56:20.838Z,113.75
2018-03-27T02:58:48.338Z,120.13
2018-03-27T03:01:15.865Z,108.03
2018-03-27T03:03:43.415Z,117.13
2018-03-27T03:06:10.920Z,109.80
2018-03-27T03:08:38.432Z,112.32
2018-03-27T03:11:05.963Z,113.97
2018-03-27T03:13:34.254Z,113.82
2018-03-27T03:16:02.603Z,116.32
2018-03-27T03:18:30.172Z,112.80
2018-03-27T03:20:57.702Z,111.05
2018-03-27T03:23:25.232Z,122.50
2018-03-27T03:25:52.768Z,128.43
2018-03-27T03:28:21.081Z,131.63
2018-03-27T03:30:49.325Z,124.25
2018-03-27T03:33:16.824Z,118.75
2018-03-27T03:35:44.361Z,121.28
2018-03-27T03:38:11.879Z,126.47
2018-03-27T03:40:39.411Z,127.75
2018-03-27T03:43:06.926Z,118.97
2018-03-27T03:45:34.464Z,116.37
2018-03-27T03:48:02.758Z,111.93
2018-03-27T03:50:30.313Z,125.87
2018-03-27T03:52:57.832Z,112.40
2018-03-27T03:55:25.344Z,119.72
2018-03-27T03:57:52.882Z,122.78
2018-03-27T04:00:21.182Z,126.25
2018-03-27T04:02:48.735Z,123.75
2018-03-27T04:05:16.263Z,138.25
2018-03-27T04:07:44.550Z,125.32
2018-03-27T04:10:12.852Z,119.90
2018-03-27T04:12:40.377Z,126.32
2018-03-27T04:15:08.684Z,125.20
2018-03-27T04:17:36.188Z,129.52
2018-03-27T04:20:03.750Z,124.30
2018-03-27T04:22:31.278Z,117.90
2018-03-27T04:24:58.818Z,122.65
2018-03-27T04:27:26.358Z,134.20
2018-03-27T04:29:54.684Z,126.05
2018-03-27T04:32:22.187Z,127.43
2018-03-27T04:34:50.486Z,124.68
2018-03-27T04:37:17.999Z,124.65
2018-03-27T04:39:45.537Z,125.68
2018-03-27T04:42:13.062Z,129.85
2018-03-27T04:44:40.591Z,132.15
2018-03-27T04:47:08.122Z,126.07
2018-03-27T04:49:35.655Z,121.97
2018-03-27T04:52:03.197Z,120.57
2018-03-27T04:54:30.706Z,114.20
2018-03-27T04:56:58.235Z,124.72
2018-03-27T04:59:25.800Z,127.87
2018-03-27T05:01:53.297Z,123.87
2018-03-27T05:04:20.818Z,135.35
2018-03-27T05:06:49.156Z,136.20
2018-03-27T05:09:17.463Z,142.27
2018-03-27T05:11:44.966Z,143.85
2018-03-27T05:14:12.513Z,137.00
2018-03-27T05:16:40.014Z,139.27
2018-03-27T05:19:07.566Z,123.65
2018-03-27T05:21:35.835Z,125.87
2018-03-27T05:24:04.135Z,141.43
2018-03-27T05:26:31.671Z,136.55
2018-03-27T05:28:59.180Z,125.93
2018-03-27T05:31:26.746Z,132.52
2018-03-27T05:33:54.248Z,135.40
2018-03-27T05:36:21.796Z,117.47
2018-03-27T05:38:49.324Z,111.25
2018-03-27T05:41:16.825Z,119.03
2018-03-27T05:43:44.364Z,126.43
2018-03-27T05:46:11.928Z,132.07
2018-03-27T05:48:40.252Z,125.80
2018-03-27T05:51:07.775Z,137.00
2018-03-27T05:53:36.060Z,131.75
2018-03-27T05:56:03.648Z,130.07
2018-03-27T05:58:31.148Z,135.32
2018-03-27T06:00:59.467Z,126.95
2018-03-27T06:03:26.990Z,122.68
2018-03-27T06:05:54.544Z,127.80
2018-03-27T06:08:22.095Z,125.18
2018-03-27T06:10:49.619Z,122.20
2018-03-27T06:13:17.180Z,117.13
2018-03-27T06:15:44.706Z,128.18
2018-03-27T06:18:12.266Z,119.60
2018-03-27T06:20:40.555Z,123.57
2018-03-27T06:23:08.100Z,138.43
2018-03-27T06:25:36.403Z,120.55
2018-03-27T06:28:03.910Z,132.37
2018-03-27T06:30:31.442Z,122.47
2018-03-27T06:32:59.017Z,123.62
2018-03-27T06:35:26.556Z,131.55
2018-03-27T06:37:54.077Z,121.37
2018-03-27T06:40:22.384Z,125.72
2018-03-27T06:42:49.910Z,125.05
2018-03-27T06:45:18.198Z,118.93
2018-03-27T06:47:45.793Z,112.78
2018-03-27T06:50:13.304Z,114.70
2018-03-27T06:52:40.852Z,117.72
2018-03-27T06:55:09.150Z,108.20
2018-03-27T06:57:36.658Z,117.35
2018-03-27T07:00:04.201Z,109.28
2018-03-27T07:02:31.759Z,109.65
2018-03-27T07:04:59.300Z,108.43
2018-03-27T07:07:26.831Z,106.87
2018-03-27T07:09:55.096Z,99.20
2018-03-27T07:12:23.396Z,105.43
2018-03-27T07:14:50.952Z,109.85
2018-03-27T07:17:19.321Z,101.45
2018-03-27T07:19:47.605Z,100.80
2018-03-27T07:22:15.117Z,99.25
2018-03-27T07:24:42.648Z,96.45
2018-03-27T07:27:10.183Z,103.95
2018-03-27T07:35:25.491Z,103.55
2018-03-27T07:37:53.013Z,92.53
2018-03-27T07:40:20.540Z,90.10
2018-03-27T07:42:48.061Z,91.77
2018-03-27T07:45:16.343Z,88.15
2018-03-27T07:47:43.871Z,87.37
2018-03-27T07:50:11.395Z,92.03
2018-03-27T07:52:38.924Z,88.45
2018-03-27T07:55:06.452Z,89.85
2018-03-27T07:57:34.002Z,83.87
2018-03-27T08:00:01.510Z,90.77
2018-03-27T08:02:29.015Z,83.50
2018-03-27T08:04:56.523Z,96.07
2018-03-27T08:07:24.054Z,88.12
2018-03-27T08:09:52.349Z,85.97
2018-03-27T08:12:19.905Z,90.20
2018-03-27T08:14:48.191Z,82.60
2018-03-27T08:17:15.683Z,81.37
2018-03-27T08:19:43.190Z,89.03
2018-03-27T08:22:10.698Z,80.30
2018-03-27T08:24:38.233Z,74.13
2018-03-27T08:27:05.765Z,81.33
2018-03-27T08:29:34.045Z,80.67
2018-03-27T08:32:02.360Z,84.70
2018-03-27T08:34:29.870Z,87.00
2018-03-27T08:36:58.203Z,77.83
2018-03-27T08:39:25.706Z,75.70
2018-03-27T08:41:54.006Z,75.10
2018-03-27T08:44:21.552Z,72.10
2018-03-27T08:46:49.833Z,74.40
2018-03-27T08:49:18.144Z,80.17
2018-03-27T08:51:45.655Z,77.77
2018-03-27T08:54:13.977Z,81.50
2018-03-27T08:56:41.496Z,78.77
2018-03-27T08:59:09.824Z,80.70
2018-03-27T09:01:37.359Z,79.60
2018-03-27T09:04:04.878Z,84.23
2018-03-27T09:06:32.371Z,78.10
2018-03-27T09:08:59.891Z,83.10
2018-03-27T09:11:27.384Z,88.97
2018-03-27T09:13:54.918Z,75.77
2018-03-27T09:16:22.413Z,76.27
2018-03-27T09:18:49.930Z,82.00
2018-03-27T09:21:17.473Z,75.13
2018-03-27T09:23:44.974Z,75.67
2018-03-27T09:26:12.470Z,74.57
2018-03-27T09:28:40.026Z,77.80
2018-03-27T09:31:07.530Z,73.23
2018-03-27T09:33:35.832Z,70.73
2018-03-27T09:36:03.347Z,70.43
2018-03-27T09:38:30.922Z,67.80
2018-03-27T09:40:58.454Z,66.23
2018-03-27T09:43:25.977Z,64.80
2018-03-27T09:45:53.510Z,53.07
2018-03-27T09:48:21.783Z,53.67
2018-03-27T09:50:50.089Z,52.73
2018-03-27T09:53:17.605Z,49.00
2018-03-27T09:55:45.911Z,47.43
2018-03-27T09:58:13.425Z,45.43
2018-03-27T10:00:46.795Z,40.10
2018-03-27T10:03:14.349Z,45.50
2018-03-27T10:05:41.904Z,45.70
2018-03-27T10:08:09.439Z,42.30
2018-03-27T10:10:37.700Z,39.90
2018-03-27T10:13:06.117Z,38.57
2018-03-27T10:15:33.648Z,35.90
2018-03-27T10:18:01.992Z,39.03
2018-03-27T10:20:29.515Z,33.67
2018-03-27T10:22:57.050Z,44.23
2018-03-27T10:25:24.572Z,36.97
2018-03-27T10:27:52.167Z,36.53
2018-03-27T10:30:19.633Z,36.27
2018-03-27T10:32:47.179Z,30.00
2018-03-27T10:35:15.485Z,30.17
2018-03-27T10:37:43.015Z,27.67
2018-03-27T10:40:11.334Z,30.37
2018-03-27T10:42:39.797Z,29.77
2018-03-27T10:45:07.324Z,28.83
2018-03-27T10:47:35.591Z,28.57
2018-03-27T10:50:03.102Z,28.37
2018-03-27T10:52:30.614Z,25.93
2018-03-27T10:54:58.916Z,25.80
2018-03-27T10:57:26.436Z,27.40
2018-03-27T10:59:54.720Z,32.03
2018-03-27T11:02:23.055Z,26.83
2018-03-27T11:04:50.574Z,26.20
2018-03-27T11:07:18.114Z,28.77
2018-03-27T11:09:46.450Z,27.27
2018-03-27T11:12:13.977Z,29.97
2018-03-27T11:14:41.531Z,30.90
2018-03-27T11:17:09.067Z,29.73
2018-03-27T11:19:36.583Z,25.80
2018-03-27T11:22:04.143Z,28.03
2018-03-27T11:24:31.654Z,25.93
2018-03-27T11:26:59.983Z,29.50
2018-03-27T11:29:27.573Z,31.53
2018-03-27T11:31:55.039Z,28.50
2018-03-27T11:34:22.567Z,30.57
2018-03-27T11:36:50.089Z,30.70
2018-03-27T11:39:17.617Z,28.33
2018-03-27T11:41:45.892Z,28.30
2018-03-27T11:44:13.428Z,30.93
2018-03-27T11:46:40.930Z,31.83
2018-03-27T11:49:08.455Z,28.63
2018-03-27T11:51:35.983Z,27.70
2018-03-27T11:54:03.532Z,26.00
2018-03-27T11:56:31.049Z,28.10
2018-03-27T11:58:58.796Z,24.83
2018-03-27T12:01:26.377Z,27.70
2018-03-27T12:03:53.903Z,26.00
2018-03-27T12:06:21.447Z,25.80
2018-03-27T12:08:48.982Z,24.07
2018-03-27T12:11:16.466Z,26.03
2018-03-27T12:13:44.009Z,24.10
2018-03-27T12:16:11.534Z,24.67
2018-03-27T12:18:39.861Z,23.07
2018-03-27T12:21:07.377Z,21.70
2018-03-27T12:23:34.958Z,21.70
2018-03-27T12:26:02.500Z,24.57
2018-03-27T12:28:30.025Z,25.67
2018-03-27T12:30:57.540Z,20.70
2018-03-27T12:33:25.091Z,22.73
2018-03-27T12:35:52.590Z,24.57
2018-03-27T12:38:20.098Z,22.80
2018-03-27T12:40:47.668Z,22.60
2018-03-27T12:43:15.200Z,22.27
2018-03-27T12:45:42.711Z,22.00
2018-03-27T12:48:10.273Z,22.03
2018-03-27T12:50:37.777Z,18.57
2018-03-27T12:53:05.322Z,18.90
2018-03-27T12:55:33.610Z,19.73
2018-03-27T12:58:01.941Z,19.40
2018-03-27T13:00:29.474Z,20.00
2018-03-27T13:02:57.003Z,20.10
2018-03-27T13:05:25.309Z,23.87
2018-03-27T13:10:25.020Z,21.33
2018-03-27T13:12:52.532Z,22.20
2018-03-27T13:15:20.039Z,23.00
2018-03-27T13:17:47.675Z,20.50
2018-03-27T13:20:15.954Z,21.20
2018-03-27T13:22:44.265Z,24.20
2018-03-27T13:25:11.813Z,22.03
2018-03-27T13:27:39.330Z,23.23
2018-03-27T13:30:06.851Z,21.10
2018-03-27T13:32:34.358Z,24.23
2018-03-27T13:35:02.680Z,25.63
2018-03-27T13:37:30.224Z,25.17
2018-03-27T13:39:57.733Z,23.17
2018-03-27T13:42:25.253Z,24.37
2018-03-27T13:44:52.775Z,27.80
2018-03-27T13:47:21.039Z,22.03
2018-03-27T13:49:49.351Z,21.80
2018-03-27T13:52:16.874Z,25.73
2018-03-27T13:54:44.440Z,26.17
2018-03-27T13:57:12.729Z,26.53
2018-03-27T13:59:41.010Z,23.40
2018-03-27T14:02:09.323Z,24.90
2018-03-27T14:04:36.853Z,20.20
2018-03-27T14:07:05.131Z,24.53
2018-03-27T14:09:32.836Z,23.60
2018-03-27T14:12:00.483Z,20.53
2018-03-27T14:14:28.147Z,21.80
2018-03-27T14:16:55.798Z,24.00
2018-03-27T14:19:23.438Z,25.70
2018-03-27T14:21:50.956Z,23.20
2018-03-27T14:24:18.496Z,24.73
2018-03-27T14:26:46.064Z,22.77
2018-03-27T14:29:13.730Z,24.00
2018-03-27T14:31:41.277Z,22.47
2018-03-27T14:34:08.895Z,26.27
2018-03-27T14:36:36.423Z,28.63
2018-03-27T14:39:20.590Z,26.53
2018-03-27T14:41:48.859Z,31.27
2018-03-27T14:44:17.146Z,37.57
2018-03-27T14:46:45.494Z,33.20
2018-03-27T14:49:12.973Z,27.70
2018-03-27T14:51:41.294Z,28.83
2018-03-27T14:54:08.817Z,30.87
2018-03-27T14:56:37.093Z,33.23
2018-03-27T14:59:05.381Z,29.87
2018-03-27T15:01:32.887Z,29.40
2018-03-27T15:04:00.420Z,31.90
2018-03-27T15:06:27.910Z,30.13
2018-03-27T15:08:55.445Z,32.37
2018-03-27T15:11:22.968Z,30.97
2018-03-27T15:13:51.290Z,31.60
2018-03-27T15:16:18.828Z,30.40
2018-03-27T15:18:46.342Z,25.90
2018-03-27T15:21:14.628Z,35.40
2018-03-27T15:23:42.898Z,31.03
2018-03-27T15:26:11.205Z,32.27
2018-03-27T15:28:38.724Z,26.43
2018-03-27T15:31:06.223Z,28.80
2018-03-27T15:33:33.775Z,25.23
2018-03-27T15:36:01.260Z,31.13
2018-03-27T15:38:28.802Z,27.43
2018-03-27T15:40:56.303Z,31.50
2018-03-27T15:43:23.812Z,29.20
2018-03-27T15:45:51.342Z,23.93
2018-03-27T15:48:19.635Z,20.03
2018-03-27T15:50:47.151Z,22.73
2018-03-27T15:53:14.664Z,18.70
2018-03-27T15:55:42.231Z,23.60
2018-03-27T15:58:09.726Z,28.30
2018-03-27T16:00:37.235Z,24.10
2018-03-27T16:03:04.793Z,24.70
2018-03-27T16:05:32.361Z,26.27
2018-03-27T16:07:59.874Z,34.90
2018-03-27T16:10:27.406Z,51.47
2018-03-27T16:12:54.927Z,30.43
2018-03-27T16:15:22.453Z,27.70
2018-03-27T16:17:50.024Z,29.70
2018-03-27T16:20:18.324Z,28.73
2018-03-27T16:22:45.870Z,27.60
2018-03-27T16:25:14.135Z,28.87
2018-03-27T16:27:42.415Z,30.53
2018-03-27T16:30:10.710Z,28.03
2018-03-27T16:32:38.218Z,35.33
2018-03-27T16:35:05.748Z,26.73
2018-03-27T16:37:33.261Z,35.20
2018-03-27T16:40:00.779Z,38.50
2018-03-27T16:42:28.290Z,33.10
2018-03-27T16:44:56.600Z,30.30
2018-03-27T16:47:24.104Z,34.60
2018-03-27T16:49:51.663Z,28.00
2018-03-27T16:52:19.142Z,33.90
2018-03-27T16:54:47.454Z,35.53
2018-03-27T16:57:15.023Z,31.83
2018-03-27T16:59:42.551Z,38.23
2018-03-27T17:02:10.079Z,35.97
2018-03-27T17:04:37.611Z,33.57
2018-03-27T17:07:05.142Z,29.30
2018-03-27T17:09:32.694Z,34.83
2018-03-27T17:12:00.205Z,40.27
2018-03-27T17:14:27.704Z,31.47
2018-03-27T17:16:55.225Z,31.10
2018-03-27T17:19:22.738Z,29.53
2018-03-27T17:21:50.320Z,38.27
2018-03-27T17:24:17.825Z,45.87
2018-03-27T17:26:46.135Z,37.70
2018-03-27T17:29:13.661Z,43.30
2018-03-27T17:31:41.977Z,51.23
2018-03-27T17:34:09.511Z,47.70
2018-03-27T17:36:37.094Z,39.57
2018-03-27T17:39:04.656Z,41.60
2018-03-27T17:41:32.474Z,32.50
2018-03-27T17:44:00.951Z,38.23
2018-03-27T17:46:29.444Z,41.03
2018-03-27T17:48:57.724Z,38.87
2018-03-27T17:51:26.111Z,34.83
2018-03-27T17:53:53.601Z,34.73
2018-03-27T17:56:21.231Z,40.33
2018-03-27T17:58:48.828Z,37.20
2018-03-27T18:01:16.332Z,37.10
2018-03-27T18:03:44.611Z,32.90
2018-03-27T18:06:12.878Z,32.53
2018-03-27T18:08:41.229Z,46.27
2018-03-27T18:11:08.837Z,49.67
2018-03-27T18:13:36.353Z,41.13
2018-03-27T18:16:03.888Z,40.73
2018-03-27T18:18:31.393Z,39.20
2018-03-27T18:20:59.675Z,37.03
2018-03-27T18:23:27.979Z,37.23
2018-03-27T18:25:55.678Z,43.40
2018-03-27T18:28:23.218Z,53.33
2018-03-27T18:30:50.859Z,36.63
2018-03-27T18:33:18.624Z,36.57
2018-03-27T18:35:46.499Z,36.17
2018-03-27T18:38:14.069Z,36.77
2018-03-27T18:40:41.639Z,36.07
2018-03-27T18:43:09.337Z,34.10
2018-03-27T18:45:37.060Z,47.23
2018-03-27T18:48:04.654Z,38.43
2018-03-27T18:50:32.235Z,39.80
2018-03-27T18:53:00.641Z,47.97
2018-03-27T18:55:28.399Z,43.83
2018-03-27T18:57:56.245Z,42.85
2018-03-27T19:00:23.819Z,45.97
2018-03-27T19:02:51.371Z,40.57
2018-03-27T19:05:19.085Z,47.42
2018-03-27T19:07:46.861Z,36.23
2018-03-27T19:10:14.430Z,35.95
2018-03-27T19:12:41.987Z,41.15
2018-03-27T19:15:09.615Z,44.65
2018-03-27T19:17:37.328Z,45.03
2018-03-27T19:20:05.585Z,44.05
2018-03-27T19:22:33.898Z,42.95
2018-03-27T19:25:01.640Z,46.53
2018-03-27T19:27:30.127Z,46.13
2018-03-27T19:29:58.391Z,46.10
2018-03-27T19:32:26.694Z,43.97
2018-03-27T19:34:54.251Z,41.73
2018-03-27T19:37:21.988Z,45.10
2018-03-27T19:39:50.287Z,49.23
2018-03-27T19:42:18.853Z,44.03
2018-03-27T19:44:46.476Z,48.67
2018-03-27T19:47:14.142Z,42.80
2018-03-27T19:49:41.944Z,44.33
2018-03-27T19:52:09.757Z,43.95
2018-03-27T19:54:37.313Z,46.20
2018-03-27T19:57:04.868Z,41.75
2018-03-27T19:59:32.610Z,41.20
2018-03-27T20:02:00.439Z,42.50
2018-03-27T20:04:28.018Z,43.47
2018-03-27T20:06:55.581Z,56.83
2018-03-27T20:09:23.196Z,45.85
2018-03-27T20:11:50.734Z,78.43
2018-03-27T20:14:18.562Z,50.60
2018-03-27T20:16:46.081Z,45.07
2018-03-27T20:19:13.591Z,56.08
2018-03-27T20:21:41.353Z,40.58
2018-03-27T20:24:08.912Z,42.90
2018-03-27T20:26:37.231Z,43.55
2018-03-27T20:29:04.738Z,37.78
2018-03-27T20:31:33.066Z,40.63
2018-03-27T20:34:00.623Z,44.13
2018-03-27T20:36:28.510Z,44.25
2018-03-27T20:38:56.033Z,47.08
2018-03-27T20:41:23.559Z,41.42
2018-03-27T20:43:51.851Z,44.58
2018-03-27T20:46:20.267Z,82.82
2018-03-27T20:48:48.001Z,41.33
2018-03-27T20:51:15.515Z,59.60
2018-03-27T20:53:43.562Z,39.58
2018-03-27T20:56:11.328Z,47.80
2018-03-27T20:58:39.148Z,48.33
2018-03-27T21:01:07.993Z,43.03
2018-03-27T21:03:35.612Z,42.88
2018-03-27T21:06:03.206Z,46.37
2018-03-27T21:08:30.881Z,41.97
2018-03-27T21:10:58.447Z,43.30
2018-03-27T21:13:26.248Z,38.88
2018-03-27T21:15:53.773Z,41.72
2018-03-27T21:18:21.440Z,45.12
2018-03-27T21:20:49.746Z,45.75
2018-03-27T21:23:18.166Z,41.33
2018-03-27T21:25:45.768Z,38.05
2018-03-27T21:28:14.073Z,41.13
2018-03-27T21:30:41.604Z,39.92
2018-03-27T21:33:09.883Z,40.00
2018-03-27T21:35:37.443Z,36.05
2018-03-27T21:38:05.821Z,35.28
2018-03-27T21:40:34.255Z,44.15
2018-03-27T21:43:01.828Z,35.95
2018-03-27T21:45:29.345Z,35.03
2018-03-27T21:47:56.918Z,31.77
2018-03-27T21:50:24.552Z,32.03
2018-03-27T21:52:52.079Z,34.10
2018-03-27T21:55:19.613Z,34.30
2018-03-27T21:57:47.187Z,32.33
2018-03-27T22:00:14.810Z,27.90
2018-03-27T22:02:42.491Z,30.10
2018-03-27T22:05:10.006Z,29.02
2018-03-27T22:07:38.286Z,27.10
2018-03-27T22:10:06.589Z,24.75
2018-03-27T22:12:34.137Z,29.50
2018-03-27T22:15:01.661Z,24.23
2018-03-27T22:17:29.175Z,24.23
2018-03-27T22:19:56.675Z,26.10
2018-03-27T22:22:24.206Z,26.00
2018-03-27T22:24:51.706Z,41.07
2018-03-27T22:27:19.246Z,29.25
2018-03-27T22:29:46.772Z,29.15
2018-03-27T22:32:14.278Z,23.05
2018-03-27T22:34:41.807Z,23.13
2018-03-27T22:37:09.333Z,27.50
2018-03-27T22:39:36.880Z,21.33
2018-03-27T22:42:04.383Z,27.02
2018-03-27T22:44:31.895Z,23.52
2018-03-27T22:46:59.418Z,29.40
2018-03-27T22:49:26.942Z,25.25
2018-03-27T22:51:54.436Z,26.00
2018-03-27T22:54:21.978Z,25.67
2018-03-27T22:56:49.482Z,31.17
2018-03-27T22:59:17.745Z,24.35
2018-03-27T23:01:46.067Z,27.80
2018-03-27T23:04:13.578Z,26.95
2018-03-27T23:06:41.898Z,28.02
2018-03-27T23:09:09.425Z,27.92
2018-03-27T23:11:37.698Z,33.30
2018-03-27T23:14:05.990Z,25.20
2018-03-27T23:16:33.484Z,26.08
2018-03-27T23:19:01.015Z,26.40
2018-03-27T23:21:28.536Z,27.37
2018-03-27T23:23:56.805Z,24.77
2018-03-27T23:26:24.341Z,25.05
2018-03-27T23:28:51.859Z,28.43
2018-03-27T23:31:19.399Z,30.47
2018-03-27T23:33:47.685Z,28.90
2018-03-27T23:36:15.965Z,28.33
2018-03-27T23:38:44.238Z,26.80
2018-03-27T23:41:12.514Z,26.20
2018-03-27T23:43:40.800Z,24.42
2018-03-27T23:46:08.310Z,26.27
2018-03-27T23:48:35.824Z,28.00
2018-03-27T23:51:03.365Z,24.48
2018-03-27T23:53:31.633Z,28.08
2018-03-27T23:55:59.958Z,32.20
2018-03-27T23:58:27.454Z,24.57
